Time;durP1;ratioP1;P1;durP2;ratioP2;P2;SDS_P1;SDS_P2;PMS_P1;PMS_P2;Temp;Humidity;BMP_temperature;BMP_pressure;BME280_temperature;BME280_humidity;BME280_pressure;Samples;Min_cycle;Max_cycle;Signal;HPM_P1;HPM_P2
2021/11/25 00:01:50;;;;;;;29.38;20.17;;;8.70;85.70;;;;;;5029113;28;20071;-59
2021/11/25 00:04:16;;;;;;;30.08;20.23;;;8.70;85.70;;;;;;5046786;28;20139;-60
2021/11/25 00:06:42;;;;;;;23.75;18.83;;;8.70;85.80;;;;;;5030071;28;20032;-62
2021/11/25 00:09:07;;;;;;;25.67;17.73;;;8.70;85.90;;;;;;5034034;28;20697;-61
2021/11/25 00:11:33;;;;;;;31.13;18.92;;;8.70;86.00;;;;;;5032563;28;20141;-61
2021/11/25 00:13:59;;;;;;;31.90;18.42;;;8.70;86.10;;;;;;5033660;28;20044;-61
2021/11/25 00:16:24;;;;;;;28.77;18.20;;;8.60;86.00;;;;;;5013849;28;20082;-61
2021/11/25 00:18:50;;;;;;;35.72;18.88;;;8.60;85.90;;;;;;5045682;28;20547;-61
2021/11/25 00:21:15;;;;;;;45.38;19.27;;;8.60;86.00;;;;;;5065186;28;20043;-62
2021/11/25 00:23:41;;;;;;;54.13;20.38;;;8.70;86.10;;;;;;5029829;28;20034;-61
2021/11/25 00:26:07;;;;;;;48.17;18.88;;;8.60;86.10;;;;;;5065405;28;20029;-62
2021/11/25 00:28:33;;;;;;;47.42;20.45;;;8.60;86.10;;;;;;5063388;28;20024;-62
2021/11/25 00:31:00;;;;;;;49.35;19.70;;;8.60;86.20;;;;;;5042783;28;20032;-61
2021/11/25 00:33:26;;;;;;;45.05;19.08;;;8.60;86.20;;;;;;5042175;28;20438;-62
2021/11/25 00:35:51;;;;;;;45.85;19.05;;;8.60;86.30;;;;;;5027900;28;20593;-62
2021/11/25 00:38:17;;;;;;;45.05;18.63;;;8.50;86.20;;;;;;5046155;28;20302;-62
2021/11/25 00:40:43;;;;;;;40.78;19.25;;;8.50;86.20;;;;;;5030208;28;20044;-62
2021/11/25 00:43:09;;;;;;;35.35;17.40;;;8.50;86.30;;;;;;5045852;28;20055;-62
2021/11/25 00:45:34;;;;;;;25.98;17.10;;;8.50;86.30;;;;;;5044548;28;20173;-61
2021/11/25 00:48:00;;;;;;;45.97;18.58;;;8.50;86.40;;;;;;5045448;28;20954;-61
2021/11/25 00:50:25;;;;;;;27.75;17.65;;;8.50;86.50;;;;;;5030367;28;20067;-62
2021/11/25 00:52:51;;;;;;;27.25;17.70;;;8.40;86.40;;;;;;5014235;28;20499;-61
2021/11/25 00:55:16;;;;;;;30.60;18.95;;;8.40;86.50;;;;;;5028030;28;20519;-62
2021/11/25 00:57:42;;;;;;;26.40;18.40;;;8.40;86.50;;;;;;5044991;28;20078;-62
2021/11/25 01:00:10;;;;;;;36.03;19.55;;;8.40;86.40;;;;;;5029839;28;20032;-62
2021/11/25 01:02:35;;;;;;;35.05;18.20;;;8.40;86.40;;;;;;5043950;28;20430;-61
2021/11/25 01:05:01;;;;;;;30.02;18.48;;;8.40;86.60;;;;;;5066001;28;20048;-62
2021/11/25 01:07:26;;;;;;;31.75;17.65;;;8.30;86.60;;;;;;5030249;28;20032;-62
2021/11/25 01:09:52;;;;;;;33.40;18.45;;;8.30;86.60;;;;;;5029176;28;20017;-62
2021/11/25 01:12:17;;;;;;;22.73;17.52;;;8.30;86.60;;;;;;5029281;28;20066;-62
2021/11/25 01:14:43;;;;;;;31.70;19.05;;;8.30;86.70;;;;;;5046329;28;20040;-61
2021/11/25 01:17:08;;;;;;;26.55;18.10;;;8.30;86.80;;;;;;5030408;28;20037;-61
2021/11/25 01:19:35;;;;;;;34.58;18.08;;;8.30;86.80;;;;;;5030257;28;20055;-61
2021/11/25 01:22:00;;;;;;;25.38;17.50;;;8.30;86.80;;;;;;5028487;28;20037;-61
2021/11/25 01:24:26;;;;;;;26.20;18.42;;;8.30;86.90;;;;;;5064617;28;20059;-62
2021/11/25 01:26:51;;;;;;;25.35;18.08;;;8.30;86.90;;;;;;5043246;28;20488;-61
2021/11/25 01:29:17;;;;;;;27.88;17.05;;;8.20;86.90;;;;;;5045638;28;20044;-61
2021/11/25 01:31:43;;;;;;;25.70;18.60;;;8.20;87.00;;;;;;5061754;28;20478;-60
2021/11/25 01:34:08;;;;;;;23.98;18.02;;;8.20;87.10;;;;;;5016920;28;20024;-62
2021/11/25 01:36:34;;;;;;;24.20;18.30;;;8.20;87.30;;;;;;5061719;28;20017;-61
2021/11/25 01:38:59;;;;;;;21.38;16.80;;;8.20;87.40;;;;;;5044458;28;20480;-62
2021/11/25 01:41:25;;;;;;;24.25;19.27;;;8.20;87.40;;;;;;5043629;28;20545;-61
2021/11/25 01:43:50;;;;;;;22.83;17.20;;;8.20;87.50;;;;;;5063871;28;20055;-62
2021/11/25 01:46:17;;;;;;;23.55;17.52;;;8.20;87.60;;;;;;5028472;28;20029;-62
2021/11/25 01:48:43;;;;;;;23.08;17.60;;;8.20;87.60;;;;;;5043495;28;20039;-61
2021/11/25 01:51:09;;;;;;;22.00;17.92;;;8.10;87.50;;;;;;5012816;28;20052;-61
2021/11/25 01:53:35;;;;;;;24.33;17.42;;;8.10;87.60;;;;;;5027885;28;20072;-61
2021/11/25 01:56:01;;;;;;;18.52;16.63;;;8.10;87.70;;;;;;5046464;28;20556;-61
2021/11/25 01:58:26;;;;;;;19.30;16.83;;;8.10;87.80;;;;;;5012913;28;20059;-62
2021/11/25 02:00:53;;;;;;;19.73;17.50;;;8.10;87.90;;;;;;5043868;28;20499;-61
2021/11/25 02:03:19;;;;;;;24.58;17.98;;;8.00;87.80;;;;;;5010008;28;20052;-62
2021/11/25 02:05:45;;;;;;;22.20;18.73;;;8.00;87.90;;;;;;5043794;28;20520;-62
2021/11/25 02:08:10;;;;;;;21.50;18.02;;;8.00;87.90;;;;;;5059467;28;20032;-61
2021/11/25 02:10:37;;;;;;;22.75;17.58;;;8.00;87.90;;;;;;5063806;28;20032;-62
2021/11/25 02:13:02;;;;;;;23.15;18.08;;;8.10;87.90;;;;;;5025632;28;20115;-61
2021/11/25 02:15:34;;;;;;;21.65;18.00;;;8.00;87.90;;;;;;5011419;28;20119;-62
2021/11/25 02:18:26;;;;;;;23.42;18.23;;;8.00;87.80;;;;;;5041404;28;20708;-61
2021/11/25 02:20:54;;;;;;;25.65;18.40;;;8.00;88.00;;;;;;5057435;28;20040;-62
2021/11/25 02:23:20;;;;;;;21.02;17.15;;;8.00;88.00;;;;;;5028686;28;20053;-62
2021/11/25 02:25:45;;;;;;;19.60;16.85;;;8.00;88.00;;;;;;5044810;28;20071;-61
2021/11/25 02:28:11;;;;;;;21.13;16.98;;;8.00;88.10;;;;;;5043907;28;20109;-61
2021/11/25 02:30:37;;;;;;;19.85;17.80;;;7.90;88.00;;;;;;5044444;28;20098;-62
2021/11/25 02:33:02;;;;;;;19.70;17.50;;;7.90;88.70;;;;;;5006837;28;20048;-61
2021/11/25 02:35:30;;;;;;;19.70;16.92;;;7.90;88.00;;;;;;5041837;28;20054;-61
2021/11/25 02:37:55;;;;;;;20.35;17.10;;;7.90;88.10;;;;;;5029733;28;20082;-62
2021/11/25 02:40:26;;;;;;;20.67;18.20;;;7.90;88.10;;;;;;5043904;28;20032;-62
2021/11/25 02:43:12;;;;;;;20.13;17.15;;;7.90;88.10;;;;;;5043265;28;20031;-61
2021/11/25 02:45:45;;;;;;;24.95;17.10;;;7.90;88.50;;;;;;5043549;28;20120;-61
2021/11/25 02:48:10;;;;;;;20.40;16.50;;;7.90;88.80;;;;;;5062942;28;20043;-62
2021/11/25 02:50:36;;;;;;;19.70;16.80;;;7.90;88.20;;;;;;5060734;28;20297;-61
2021/11/25 02:53:01;;;;;;;21.27;17.17;;;7.90;88.20;;;;;;5010225;28;20036;-61
2021/11/25 02:55:27;;;;;;;20.92;17.98;;;7.90;88.20;;;;;;5027528;28;20040;-62
2021/11/25 02:57:52;;;;;;;21.90;17.45;;;7.90;88.30;;;;;;5058076;28;20024;-62
2021/11/25 03:00:21;;;;;;;20.45;17.98;;;7.80;88.30;;;;;;5026213;28;20091;-61
2021/11/25 03:02:53;;;;;;;21.92;17.33;;;7.80;88.30;;;;;;5034452;28;20028;-61
2021/11/25 03:05:18;;;;;;;18.40;16.40;;;7.80;88.20;;;;;;5039786;28;20548;-61
2021/11/25 03:07:44;;;;;;;19.25;17.05;;;7.80;88.20;;;;;;5040328;28;20013;-62
2021/11/25 03:10:09;;;;;;;21.10;17.77;;;7.80;88.30;;;;;;5025425;28;20024;-62
2021/11/25 03:12:35;;;;;;;20.98;17.77;;;7.80;88.30;;;;;;5040555;28;20067;-63
2021/11/25 03:15:01;;;;;;;20.42;17.92;;;7.90;88.40;;;;;;5026212;28;20040;-62
2021/11/25 03:17:26;;;;;;;21.17;17.70;;;7.80;88.30;;;;;;5008916;28;20039;-62
2021/11/25 03:19:52;;;;;;;20.45;17.60;;;7.90;88.30;;;;;;5023397;28;20447;-61
2021/11/25 03:22:17;;;;;;;21.63;18.08;;;7.80;88.20;;;;;;5025233;28;20068;-62
2021/11/25 03:24:43;;;;;;;21.10;18.45;;;7.80;88.20;;;;;;5061159;28;20062;-61
2021/11/25 03:27:08;;;;;;;20.27;18.08;;;7.80;88.30;;;;;;5063980;28;20138;-61
2021/11/25 03:29:34;;;;;;;21.17;18.38;;;7.80;88.20;;;;;;5032143;28;20239;-62
2021/11/25 03:31:59;;;;;;;21.05;18.50;;;7.80;88.10;;;;;;5065132;28;20033;-62
2021/11/25 03:34:25;;;;;;;20.08;17.58;;;7.80;88.10;;;;;;5047667;28;20399;-61
2021/11/25 03:36:50;;;;;;;23.48;18.73;;;7.80;88.10;;;;;;5029325;28;20124;-62
2021/11/25 03:39:16;;;;;;;20.80;17.70;;;7.80;88.20;;;;;;5013694;28;20044;-62
2021/11/25 03:41:41;;;;;;;20.35;17.40;;;7.80;88.20;;;;;;5048457;28;20025;-61
2021/11/25 03:44:07;;;;;;;21.77;18.50;;;7.80;88.30;;;;;;5047610;28;20059;-62
2021/11/25 03:46:35;;;;;;;20.27;17.33;;;7.80;88.40;;;;;;5046094;28;20040;-62
2021/11/25 03:49:01;;;;;;;23.63;20.00;;;7.70;88.30;;;;;;5064340;28;20074;-62
2021/11/25 03:51:26;;;;;;;21.45;18.13;;;7.70;88.30;;;;;;5046564;28;20182;-62
2021/11/25 03:53:52;;;;;;;18.88;16.85;;;7.80;88.40;;;;;;5031121;28;20020;-62
2021/11/25 03:56:18;;;;;;;20.42;17.75;;;7.80;88.40;;;;;;5064338;28;20459;-62
2021/11/25 03:58:43;;;;;;;21.45;18.23;;;7.80;88.30;;;;;;5063889;28;20025;-62
2021/11/25 04:01:09;;;;;;;21.85;17.80;;;7.80;88.40;;;;;;5028071;28;20557;-61
2021/11/25 04:03:34;;;;;;;19.75;17.60;;;7.70;88.30;;;;;;5045969;28;20075;-61
2021/11/25 04:06:00;;;;;;;21.35;18.13;;;7.70;88.40;;;;;;5030845;28;20384;-61
2021/11/25 04:08:25;;;;;;;21.40;18.15;;;7.70;88.40;;;;;;5031398;28;20388;-62
2021/11/25 04:10:51;;;;;;;24.48;20.48;;;7.70;88.50;;;;;;5047874;28;20032;-62
2021/11/25 04:13:17;;;;;;;23.42;20.92;;;7.70;88.50;;;;;;5013978;28;20446;-62
2021/11/25 04:15:42;;;;;;;22.75;19.35;;;7.70;88.40;;;;;;5047140;28;20116;-62
2021/11/25 04:18:08;;;;;;;22.00;19.23;;;7.70;88.50;;;;;;5046152;28;20119;-62
2021/11/25 04:20:34;;;;;;;23.45;19.45;;;7.70;88.50;;;;;;5046586;28;20029;-62
2021/11/25 04:23:00;;;;;;;22.33;19.20;;;7.70;88.50;;;;;;5046237;28;20910;-62
2021/11/25 04:25:26;;;;;;;20.98;18.15;;;7.70;88.60;;;;;;5065179;28;20037;-62
2021/11/25 04:27:51;;;;;;;26.67;19.48;;;7.70;88.60;;;;;;5046541;28;20085;-62
2021/11/25 04:35:31;;;;;;;22.77;19.40;;;7.60;88.70;;;;;;5049082;28;20455;-61
2021/11/25 04:38:07;;;;;;;23.10;19.50;;;7.60;88.80;;;;;;5065728;28;20612;-61
2021/11/25 04:40:38;;;;;;;23.08;20.25;;;7.60;88.80;;;;;;5048134;28;20119;-61
2021/11/25 04:43:04;;;;;;;21.98;18.50;;;7.60;89.00;;;;;;5027405;28;20036;-61
2021/11/25 04:45:30;;;;;;;21.33;18.40;;;7.60;89.00;;;;;;5030639;28;20036;-61
2021/11/25 04:47:55;;;;;;;24.35;19.27;;;7.60;89.00;;;;;;5047573;28;20393;-61
2021/11/25 04:50:21;;;;;;;22.33;19.73;;;7.60;88.90;;;;;;5028833;28;20393;-62
2021/11/25 04:52:47;;;;;;;22.63;18.88;;;7.60;88.80;;;;;;5045251;28;20028;-62
2021/11/25 04:55:13;;;;;;;20.85;17.77;;;7.60;88.90;;;;;;5029971;28;20024;-62
2021/11/25 04:57:39;;;;;;;24.25;19.92;;;7.60;88.90;;;;;;5012507;28;20094;-61
2021/11/25 05:00:06;;;;;;;23.30;18.95;;;7.60;88.90;;;;;;5046631;28;20025;-61
2021/11/25 05:02:31;;;;;;;22.27;19.33;;;7.60;88.80;;;;;;5026878;28;20680;-62
2021/11/25 05:04:57;;;;;;;22.52;18.55;;;7.60;88.80;;;;;;5058949;28;20182;-61
2021/11/25 05:07:22;;;;;;;22.63;19.00;;;7.60;88.90;;;;;;5063137;28;20103;-61
2021/11/25 05:09:48;;;;;;;21.75;19.48;;;7.60;88.80;;;;;;5013862;28;20056;-61
2021/11/25 05:12:13;;;;;;;20.25;18.15;;;7.60;88.90;;;;;;5046578;28;20378;-62
2021/11/25 05:14:39;;;;;;;21.83;19.42;;;7.60;89.00;;;;;;5031878;28;20451;-62
2021/11/25 05:17:04;;;;;;;22.35;19.65;;;7.60;88.90;;;;;;5029351;28;20107;-62
2021/11/25 05:19:31;;;;;;;21.10;17.80;;;7.60;88.90;;;;;;5063446;28;20041;-61
2021/11/25 05:21:57;;;;;;;22.73;18.70;;;7.60;89.00;;;;;;5043407;28;20602;-61
2021/11/25 05:24:22;;;;;;;22.30;19.17;;;7.60;89.00;;;;;;5047736;28;20047;-61
2021/11/25 05:26:49;;;;;;;22.50;19.50;;;7.50;88.90;;;;;;5046400;28;20036;-61
2021/11/25 05:29:14;;;;;;;23.60;18.65;;;7.50;88.90;;;;;;5045881;28;20616;-62
2021/11/25 05:31:40;;;;;;;25.25;19.95;;;7.50;89.00;;;;;;5011790;28;20058;-62
2021/11/25 05:34:05;;;;;;;24.35;19.40;;;7.50;89.10;;;;;;5044685;28;20025;-61
2021/11/25 05:36:31;;;;;;;23.15;19.65;;;7.50;89.00;;;;;;5045438;28;20040;-61
2021/11/25 05:38:56;;;;;;;25.10;20.40;;;7.50;89.10;;;;;;5047485;28;20029;-61
2021/11/25 05:41:22;;;;;;;27.67;21.27;;;7.50;89.10;;;;;;5029881;28;20114;-62
2021/11/25 05:43:47;;;;;;;28.05;23.55;;;7.50;89.10;;;;;;5047041;28;20025;-62
2021/11/25 05:46:13;;;;;;;26.60;22.67;;;7.50;89.10;;;;;;5045462;28;20028;-61
2021/11/25 05:48:38;;;;;;;28.27;22.83;;;7.50;89.20;;;;;;5026490;28;20527;-61
2021/11/25 05:51:04;;;;;;;28.95;22.05;;;7.50;89.30;;;;;;5029752;28;20067;-62
2021/11/25 05:53:29;;;;;;;32.65;23.45;;;7.50;89.30;;;;;;5027184;28;20119;-61
2021/11/25 05:55:55;;;;;;;35.83;21.58;;;7.50;89.30;;;;;;5046022;28;20566;-61
2021/11/25 05:58:20;;;;;;;215.93;33.78;;;7.40;89.30;;;;;;5043583;28;20452;-61
2021/11/25 06:00:46;;;;;;;180.55;34.35;;;7.20;89.20;;;;;;5042026;28;20036;-62
2021/11/25 06:03:11;;;;;;;337.75;45.17;;;7.40;89.40;;;;;;5061692;28;20053;-62
2021/11/25 06:05:37;;;;;;;387.98;47.28;;;7.50;89.30;;;;;;5030580;28;20111;-62
2021/11/25 06:08:03;;;;;;;251.98;39.53;;;7.50;89.30;;;;;;5044660;28;20052;-62
2021/11/25 06:10:28;;;;;;;282.50;36.78;;;7.50;89.30;;;;;;5063821;28;20111;-62
2021/11/25 06:12:54;;;;;;;245.63;38.60;;;7.50;89.30;;;;;;5043546;28;20461;-61
2021/11/25 06:15:20;;;;;;;257.90;37.05;;;7.50;89.30;;;;;;5029079;28;20280;-62
2021/11/25 06:17:46;;;;;;;198.93;34.70;;;7.50;89.20;;;;;;5044085;28;20235;-62
2021/11/25 06:20:13;;;;;;;211.70;36.15;;;7.50;89.20;;;;;;5027742;28;20037;-61
2021/11/25 06:22:44;;;;;;;171.95;33.33;;;7.50;89.20;;;;;;5062648;28;20099;-62
2021/11/25 06:25:10;;;;;;;185.27;32.17;;;7.50;89.20;;;;;;5029030;28;20502;-61
2021/11/25 06:27:36;;;;;;;187.02;33.25;;;7.50;89.10;;;;;;5011385;28;20044;-62
2021/11/25 06:30:03;;;;;;;131.15;29.60;;;7.50;89.10;;;;;;5045883;28;20020;-62
2021/11/25 06:32:29;;;;;;;161.40;30.38;;;7.50;89.10;;;;;;5026308;28;20051;-61
2021/11/25 06:34:54;;;;;;;126.43;28.88;;;7.50;89.10;;;;;;5011660;28;20384;-62
2021/11/25 06:37:20;;;;;;;166.20;29.92;;;7.50;89.10;;;;;;5026169;28;20036;-61
2021/11/25 06:39:45;;;;;;;164.85;28.80;;;7.50;89.00;;;;;;5011169;28;20203;-62
2021/11/25 06:42:11;;;;;;;134.00;28.75;;;7.60;89.10;;;;;;5061243;28;20083;-61
2021/11/25 06:44:36;;;;;;;128.07;28.88;;;7.60;89.00;;;;;;5045854;28;20036;-62
2021/11/25 06:47:02;;;;;;;121.97;27.27;;;7.60;89.10;;;;;;5044394;28;20077;-61
2021/11/25 06:49:28;;;;;;;143.50;28.00;;;7.60;89.00;;;;;;5061315;28;20380;-62
2021/11/25 06:51:53;;;;;;;140.52;26.95;;;7.60;89.00;;;;;;5061642;28;20027;-62
2021/11/25 06:54:19;;;;;;;113.88;26.77;;;7.60;88.90;;;;;;5062406;28;20054;-61
2021/11/25 06:56:44;;;;;;;121.60;26.30;;;7.60;88.80;;;;;;5028070;28;20028;-62
2021/11/25 06:59:10;;;;;;;105.70;26.52;;;7.60;88.80;;;;;;5028097;28;20024;-62
2021/11/25 07:01:35;;;;;;;114.68;25.95;;;7.60;88.90;;;;;;5008098;28;20558;-62
2021/11/25 07:04:01;;;;;;;119.38;27.08;;;7.60;89.00;;;;;;5060019;28;20170;-61
2021/11/25 07:06:28;;;;;;;112.82;24.30;;;7.60;89.00;;;;;;5059339;28;20400;-62
2021/11/25 07:08:54;;;;;;;94.10;25.27;;;7.60;89.00;;;;;;5019310;28;20121;-62
2021/11/25 07:11:19;;;;;;;119.72;26.80;;;7.60;89.00;;;;;;5037581;28;20111;-61
2021/11/25 07:13:45;;;;;;;111.25;25.30;;;7.60;88.90;;;;;;5040691;28;20028;-62
2021/11/25 07:16:10;;;;;;;97.85;23.88;;;7.60;88.90;;;;;;5039539;28;20048;-61
2021/11/25 07:18:36;;;;;;;113.35;24.95;;;7.60;88.90;;;;;;5039849;28;20032;-62
2021/11/25 07:21:01;;;;;;;79.75;25.27;;;7.60;89.00;;;;;;5043129;28;20075;-61
2021/11/25 07:23:27;;;;;;;88.32;24.02;;;7.60;89.00;;;;;;5044560;28;20060;-62
2021/11/25 07:25:52;;;;;;;126.10;24.90;;;7.60;89.00;;;;;;5043746;28;20523;-62
2021/11/25 07:28:18;;;;;;;100.57;25.67;;;7.70;89.10;;;;;;5043185;28;20075;-61
2021/11/25 07:30:44;;;;;;;106.22;25.67;;;7.70;89.10;;;;;;5037071;28;20108;-62
2021/11/25 07:33:10;;;;;;;100.40;25.33;;;7.70;89.00;;;;;;5058070;28;20033;-62
2021/11/25 07:35:36;;;;;;;75.82;21.92;;;7.60;89.00;;;;;;5042624;28;20395;-61
2021/11/25 07:38:03;;;;;;;76.60;24.77;;;7.60;89.10;;;;;;5007002;28;20036;-61
2021/11/25 07:40:29;;;;;;;97.78;24.83;;;7.70;89.20;;;;;;5027656;28;20044;-62
2021/11/25 07:42:54;;;;;;;95.28;24.10;;;7.70;89.20;;;;;;5061782;28;20082;-62
2021/11/25 07:45:20;;;;;;;74.88;23.02;;;7.70;89.20;;;;;;5027802;28;20120;-61
2021/11/25 07:47:46;;;;;;;97.35;24.50;;;7.70;89.20;;;;;;5043540;28;20024;-66
2021/11/25 07:50:14;;;;;;;89.47;26.30;;;7.70;89.20;;;;;;5042694;28;20029;-62
2021/11/25 07:52:40;;;;;;;83.97;23.73;;;7.70;89.30;;;;;;5040225;28;20040;-61
2021/11/25 07:55:06;;;;;;;93.30;24.10;;;7.70;89.30;;;;;;5041559;28;20028;-62
2021/11/25 07:57:32;;;;;;;84.35;24.52;;;7.70;89.30;;;;;;5043965;28;20039;-62
2021/11/25 07:59:57;;;;;;;99.90;22.83;;;7.70;89.40;;;;;;5043554;28;20032;-62
2021/11/25 08:02:23;;;;;;;91.97;25.00;;;7.70;89.20;;;;;;5061722;28;20032;-63
2021/11/25 08:04:49;;;;;;;97.22;24.08;;;7.70;89.30;;;;;;5061818;28;20036;-62
2021/11/25 08:07:14;;;;;;;74.00;22.08;;;7.70;89.20;;;;;;5028609;28;20033;-62
2021/11/25 08:09:40;;;;;;;86.80;24.15;;;7.70;89.20;;;;;;5062847;28;20032;-62
2021/11/25 08:12:06;;;;;;;116.78;25.88;;;7.40;89.10;;;;;;5049204;28;20032;-61
2021/11/25 08:14:32;;;;;;;92.28;24.85;;;7.80;90.10;;;;;;5064165;28;20051;-62
2021/11/25 08:17:00;;;;;;;90.10;24.88;;;7.80;89.60;;;;;;5066212;28;20480;-61
2021/11/25 08:19:26;;;;;;;97.03;27.33;;;7.70;89.50;;;;;;5021835;28;20386;-62
2021/11/25 08:21:51;;;;;;;99.03;24.70;;;7.80;89.60;;;;;;5032416;28;20066;-64
2021/11/25 08:24:17;;;;;;;85.88;23.40;;;7.80;89.60;;;;;;5031756;28;20403;-61
2021/11/25 08:26:42;;;;;;;93.70;25.27;;;7.80;89.60;;;;;;5025223;28;20536;-61
2021/11/25 08:29:08;;;;;;;54.72;22.50;;;7.80;89.60;;;;;;5059931;28;20848;-62
2021/11/25 08:31:33;;;;;;;96.15;23.65;;;7.90;89.70;;;;;;5044002;28;20733;-62
2021/11/25 08:33:59;;;;;;;84.65;23.02;;;7.90;90.10;;;;;;5027945;28;20037;-62
2021/11/25 08:36:25;;;;;;;74.68;23.38;;;7.90;89.80;;;;;;5029775;28;20039;-61
2021/11/25 08:38:50;;;;;;;81.30;24.02;;;7.90;89.80;;;;;;5038686;28;21341;-62
2021/11/25 08:41:16;;;;;;;77.30;23.48;;;7.90;89.80;;;;;;5055272;28;20107;-62
2021/11/25 08:43:41;;;;;;;87.35;23.85;;;7.90;89.80;;;;;;5023554;28;20263;-62
2021/11/25 08:46:07;;;;;;;96.80;24.20;;;7.90;89.70;;;;;;5046655;28;20032;-62
2021/11/25 08:48:32;;;;;;;80.30;23.02;;;7.90;89.80;;;;;;5045927;28;20028;-62
2021/11/25 08:50:58;;;;;;;82.00;23.02;;;7.90;89.80;;;;;;5043456;28;20111;-62
2021/11/25 08:53:24;;;;;;;73.50;23.75;;;7.90;89.80;;;;;;5042116;28;20090;-63
2021/11/25 08:55:53;;;;;;;82.57;23.65;;;7.90;89.60;;;;;;5028506;28;20534;-62
2021/11/25 08:58:18;;;;;;;67.25;22.38;;;8.00;89.60;;;;;;5045980;28;20536;-63
2021/11/25 09:00:44;;;;;;;74.40;23.52;;;7.90;89.50;;;;;;5063763;28;20032;-62
2021/11/25 09:03:09;;;;;;;83.75;24.58;;;7.90;90.00;;;;;;5063523;28;20025;-62
2021/11/25 09:05:35;;;;;;;69.18;22.55;;;8.00;89.60;;;;;;5028098;28;20822;-62
2021/11/25 09:08:01;;;;;;;68.35;22.50;;;8.00;89.70;;;;;;5026516;28;20416;-62
2021/11/25 09:10:26;;;;;;;73.55;22.17;;;7.90;89.60;;;;;;5017964;28;20136;-62
2021/11/25 09:12:52;;;;;;;67.35;22.23;;;8.00;89.60;;;;;;5045175;28;20040;-62
2021/11/25 09:15:17;;;;;;;64.50;22.60;;;8.00;89.50;;;;;;5028214;28;20048;-62
2021/11/25 09:17:43;;;;;;;71.65;23.25;;;8.00;89.60;;;;;;5042369;28;20089;-62
2021/11/25 09:20:09;;;;;;;81.32;22.58;;;8.00;89.50;;;;;;5062844;28;20032;-61
2021/11/25 09:22:36;;;;;;;61.33;21.23;;;8.00;89.50;;;;;;5028622;28;20036;-61
2021/11/25 09:25:02;;;;;;;75.28;22.05;;;8.00;89.60;;;;;;5028644;28;20025;-62
2021/11/25 09:27:27;;;;;;;52.67;22.65;;;8.00;89.60;;;;;;5040142;28;20042;-62
2021/11/25 09:29:53;;;;;;;62.13;21.83;;;8.00;89.50;;;;;;5025602;28;20107;-65
2021/11/25 09:32:19;;;;;;;61.42;23.17;;;8.00;89.40;;;;;;5010451;28;20064;-62
2021/11/25 09:34:44;;;;;;;61.25;21.50;;;8.00;89.40;;;;;;5063559;28;20036;-61
2021/11/25 09:37:10;;;;;;;59.20;21.55;;;8.00;89.40;;;;;;5044200;28;20090;-64
2021/11/25 09:39:35;;;;;;;63.10;22.48;;;8.00;89.40;;;;;;5021357;28;20163;-63
2021/11/25 09:42:01;;;;;;;52.20;21.90;;;8.00;89.40;;;;;;5045043;28;20496;-62
2021/11/25 09:44:26;;;;;;;46.83;19.90;;;8.00;89.40;;;;;;5013296;28;20071;-62
2021/11/25 09:46:54;;;;;;;49.10;21.67;;;8.00;89.40;;;;;;5045981;28;20032;-62
2021/11/25 09:49:23;;;;;;;61.35;22.90;;;8.00;89.30;;;;;;5061748;28;20028;-62
2021/11/25 09:51:49;;;;;;;47.88;20.73;;;8.00;89.30;;;;;;5045438;28;20025;-61
2021/11/25 09:54:14;;;;;;;41.70;21.17;;;8.00;89.30;;;;;;5043191;28;20043;-61
2021/11/25 09:56:40;;;;;;;43.40;20.70;;;8.00;89.30;;;;;;5023161;28;20044;-63
2021/11/25 09:59:05;;;;;;;52.20;21.33;;;8.10;89.40;;;;;;5024467;28;20489;-62
2021/11/25 10:01:31;;;;;;;59.85;21.13;;;8.00;89.30;;;;;;5038183;28;20407;-62
2021/11/25 10:03:57;;;;;;;56.00;22.20;;;8.00;89.40;;;;;;5031703;28;20060;-62
2021/11/25 10:06:29;;;;;;;49.28;21.27;;;8.10;89.40;;;;;;5039867;28;20039;-63
2021/11/25 10:08:55;;;;;;;50.30;22.50;;;8.10;89.40;;;;;;5009785;28;20393;-62
2021/11/25 10:11:28;;;;;;;54.58;21.27;;;8.10;89.30;;;;;;5024324;28;20055;-63
2021/11/25 10:14:01;;;;;;;58.15;23.13;;;8.10;89.40;;;;;;5037074;28;20035;-62
2021/11/25 10:16:29;;;;;;;55.45;21.73;;;8.10;89.50;;;;;;5042195;28;20028;-62
2021/11/25 10:18:58;;;;;;;59.92;21.42;;;8.10;89.50;;;;;;5051312;28;20040;-62
2021/11/25 10:21:26;;;;;;;58.90;23.35;;;8.10;89.50;;;;;;5052301;28;20032;-62
2021/11/25 10:23:53;;;;;;;72.57;22.63;;;8.10;89.50;;;;;;5027377;28;20128;-62
2021/11/25 10:26:26;;;;;;;69.63;23.98;;;8.20;89.60;;;;;;5062675;28;20050;-62
2021/11/25 10:29:01;;;;;;;72.85;23.17;;;8.20;89.60;;;;;;5026406;28;20084;-62
2021/11/25 10:31:38;;;;;;;65.55;23.10;;;8.20;89.50;;;;;;5044528;28;20043;-61
2021/11/25 10:34:11;;;;;;;74.63;23.65;;;8.20;89.80;;;;;;5042004;28;20056;-62
2021/11/25 10:41:51;;;;;;;99.55;23.77;;;8.30;89.80;;;;;;5023061;28;20562;-62
2021/11/25 10:44:34;;;;;;;101.57;25.13;;;8.30;89.80;;;;;;5021024;28;20032;-62
2021/11/25 10:47:05;;;;;;;72.93;23.48;;;8.40;89.80;;;;;;5023215;28;20040;-61
2021/11/25 10:49:39;;;;;;;65.07;23.80;;;8.40;89.70;;;;;;5040424;28;20021;-62
2021/11/25 10:52:09;;;;;;;76.35;24.20;;;8.40;89.70;;;;;;5060629;28;20036;-61
2021/11/25 10:54:40;;;;;;;70.18;25.15;;;8.40;89.70;;;;;;5047989;28;20496;-61
2021/11/25 10:57:06;;;;;;;74.30;24.50;;;8.40;89.60;;;;;;5036930;28;20067;-61
2021/11/25 10:59:39;;;;;;;75.70;23.50;;;8.40;89.70;;;;;;5056882;28;20024;-61
2021/11/25 11:02:17;;;;;;;71.82;22.90;;;8.50;89.70;;;;;;5030872;28;20098;-61
2021/11/25 11:04:44;;;;;;;78.88;23.65;;;8.50;89.60;;;;;;5018461;28;20049;-61
2021/11/25 11:07:24;;;;;;;78.88;24.35;;;8.50;89.80;;;;;;5003855;28;20075;-61
2021/11/25 11:09:49;;;;;;;111.85;26.27;;;8.50;89.90;;;;;;5037822;28;20025;-62
2021/11/25 11:12:43;;;;;;;94.35;24.83;;;8.60;89.90;;;;;;5019156;28;20086;-62
2021/11/25 11:18:42;;;;;;;72.07;24.15;;;8.60;89.90;;;;;;5051739;28;20050;-60
2021/11/25 11:20:49;;;;;;;113.85;29.77;;;8.70;89.60;;;;;;5022469;28;20040;-60
2021/11/25 11:23:19;;;;;;;99.68;27.98;;;8.70;90.00;;;;;;5016965;28;20025;-62
2021/11/25 11:25:46;;;;;;;132.20;29.45;;;8.70;90.00;;;;;;5040145;28;20411;-63
2021/11/25 11:28:12;;;;;;;102.68;28.95;;;8.80;90.00;;;;;;5034049;28;20044;-60
2021/11/25 11:30:38;;;;;;;100.13;27.95;;;8.80;90.10;;;;;;5018678;28;20490;-64
2021/11/25 11:33:05;;;;;;;75.22;25.63;;;8.80;89.70;;;;;;5035596;28;20506;-61
2021/11/25 11:35:30;;;;;;;102.53;26.52;;;8.80;89.60;;;;;;5031901;28;20060;-61
2021/11/25 11:37:58;;;;;;;97.05;26.52;;;8.80;89.40;;;;;;5038290;28;20075;-61
2021/11/25 11:40:24;;;;;;;104.45;27.15;;;8.80;89.50;;;;;;5021018;28;20036;-60
2021/11/25 11:42:51;;;;;;;101.93;29.42;;;8.80;89.50;;;;;;5020947;28;20631;-61
2021/11/25 11:45:17;;;;;;;111.70;29.75;;;8.80;90.00;;;;;;5035410;28;20036;-61
2021/11/25 11:47:43;;;;;;;93.35;26.17;;;8.80;89.90;;;;;;5006258;28;20025;-61
2021/11/25 11:50:10;;;;;;;86.50;27.55;;;8.90;90.00;;;;;;5035684;28;20025;-61
2021/11/25 11:52:52;;;;;;;86.18;26.35;;;8.90;89.90;;;;;;5015153;28;20068;-61
2021/11/25 11:55:28;;;;;;;84.60;25.90;;;8.90;89.70;;;;;;5028022;28;20033;-61
2021/11/25 11:57:54;;;;;;;101.68;27.85;;;8.90;89.60;;;;;;5038318;28;20625;-61
2021/11/25 12:00:19;;;;;;;83.10;25.02;;;8.90;89.60;;;;;;5042240;28;20033;-60
2021/11/25 12:02:45;;;;;;;92.60;26.83;;;8.90;89.30;;;;;;5037448;28;20036;-61
2021/11/25 12:05:31;;;;;;;83.22;25.88;;;8.90;89.10;;;;;;5054012;28;20048;-62
2021/11/25 12:08:20;;;;;;;;;;;8.90;89.10;;;;;;5047633;28;20556;-61
2021/11/25 12:10:57;;;;;;;118.85;29.35;;;8.90;89.10;;;;;;5058429;28;19920;-60
2021/11/25 12:13:24;;;;;;;138.23;30.25;;;9.00;89.50;;;;;;5041328;28;20028;-60
2021/11/25 12:15:50;;;;;;;112.57;26.75;;;9.00;89.30;;;;;;5022273;28;20043;-61
2021/11/25 12:18:42;;;;;;;109.25;28.95;;;9.00;89.40;;;;;;5056919;28;20036;-61
2021/11/25 12:21:07;;;;;;;132.23;31.15;;;9.00;89.50;;;;;;5034171;28;20043;-62
2021/11/25 12:23:37;;;;;;;138.35;31.70;;;9.00;89.50;;;;;;5026007;28;20024;-62
2021/11/25 12:26:03;;;;;;;135.00;30.35;;;9.00;89.60;;;;;;5028387;28;20077;-60
2021/11/25 12:28:29;;;;;;;121.32;29.38;;;9.10;89.90;;;;;;5038962;28;20060;-62
2021/11/25 12:31:59;;;;;;;137.15;32.63;;;9.10;90.00;;;;;;5010018;28;20032;-61
2021/11/25 12:33:53;;;;;;;140.95;29.52;;;9.10;89.80;;;;;;5031425;28;20063;-61
2021/11/25 12:36:39;;;;;;;140.85;32.38;;;9.10;89.90;;;;;;5041204;28;20025;-61
2021/11/25 12:39:06;;;;;;;160.77;33.10;;;9.30;90.00;;;;;;5059649;28;20029;-62
2021/11/25 12:41:34;;;;;;;136.23;30.65;;;9.10;89.90;;;;;;5041163;28;20031;-62
2021/11/25 12:44:00;;;;;;;158.88;31.15;;;9.20;90.00;;;;;;5042403;28;20036;-63
2021/11/25 12:46:25;;;;;;;135.38;31.55;;;9.20;89.90;;;;;;5043147;28;20041;-61
2021/11/25 12:48:52;;;;;;;178.00;33.63;;;9.20;89.90;;;;;;5037973;28;20029;-61